sensor_id;sensor_type;location;lat;lon;timestamp;P1;durP1;ratioP1;P2;durP2;ratioP2
63217;SDS011;49314;48.278;16.378;2023-07-24T00:00:40;10.67;;;9.87;;
63217;SDS011;49314;48.278;16.378;2023-07-24T00:03:06;10.88;;;10.07;;
63217;SDS011;49314;48.278;16.378;2023-07-24T00:05:31;8.50;;;7.65;;
63217;SDS011;49314;48.278;16.378;2023-07-24T00:07:56;10.10;;;9.40;;
63217;SDS011;49314;48.278;16.378;2023-07-24T00:10:21;10.43;;;9.53;;
63217;SDS011;49314;48.278;16.378;2023-07-24T00:12:47;10.53;;;9.80;;
63217;SDS011;49314;48.278;16.378;2023-07-24T00:15:12;11.97;;;11.07;;
63217;SDS011;49314;48.278;16.378;2023-07-24T00:17:37;10.77;;;9.97;;
63217;SDS011;49314;48.278;16.378;2023-07-24T00:20:02;10.90;;;10.03;;
63217;SDS011;49314;48.278;16.378;2023-07-24T00:22:28;9.38;;;8.57;;
63217;SDS011;49314;48.278;16.378;2023-07-24T00:24:53;10.17;;;9.17;;
63217;SDS011;49314;48.278;16.378;2023-07-24T00:27:18;9.40;;;8.70;;
63217;SDS011;49314;48.278;16.378;2023-07-24T00:29:43;8.97;;;8.27;;
63217;SDS011;49314;48.278;16.378;2023-07-24T00:32:09;10.67;;;9.77;;
63217;SDS011;49314;48.278;16.378;2023-07-24T00:34:34;9.20;;;8.50;;
63217;SDS011;49314;48.278;16.378;2023-07-24T00:36:59;11.27;;;10.40;;
63217;SDS011;49314;48.278;16.378;2023-07-24T00:39:24;11.07;;;10.17;;
63217;SDS011;49314;48.278;16.378;2023-07-24T00:41:53;9.93;;;9.00;;
63217;SDS011;49314;48.278;16.378;2023-07-24T00:44:18;11.27;;;10.17;;
63217;SDS011;49314;48.278;16.378;2023-07-24T00:46:43;10.47;;;9.57;;
63217;SDS011;49314;48.278;16.378;2023-07-24T00:49:09;9.88;;;9.18;;
63217;SDS011;49314;48.278;16.378;2023-07-24T00:51:34;10.82;;;9.95;;
63217;SDS011;49314;48.278;16.378;2023-07-24T00:54:02;11.18;;;10.40;;
63217;SDS011;49314;48.278;16.378;2023-07-24T00:56:28;10.82;;;9.95;;
63217;SDS011;49314;48.278;16.378;2023-07-24T00:58:55;11.18;;;10.27;;
63217;SDS011;49314;48.278;16.378;2023-07-24T01:01:21;9.85;;;9.00;;
63217;SDS011;49314;48.278;16.378;2023-07-24T01:03:47;10.43;;;9.52;;
63217;SDS011;49314;48.278;16.378;2023-07-24T01:06:12;12.90;;;11.90;;
63217;SDS011;49314;48.278;16.378;2023-07-24T01:08:37;8.93;;;8.23;;
63217;SDS011;49314;48.278;16.378;2023-07-24T01:11:03;9.98;;;9.18;;
63217;SDS011;49314;48.278;16.378;2023-07-24T01:13:32;10.18;;;9.38;;
63217;SDS011;49314;48.278;16.378;2023-07-24T01:16:02;10.80;;;10.00;;
63217;SDS011;49314;48.278;16.378;2023-07-24T01:18:29;10.52;;;9.73;;
63217;SDS011;49314;48.278;16.378;2023-07-24T01:20:55;9.90;;;9.20;;
63217;SDS011;49314;48.278;16.378;2023-07-24T01:26:01;10.93;;;10.15;;
63217;SDS011;49314;48.278;16.378;2023-07-24T01:28:30;11.40;;;10.57;;
63217;SDS011;49314;48.278;16.378;2023-07-24T01:30:55;11.65;;;10.85;;
63217;SDS011;49314;48.278;16.378;2023-07-24T01:33:21;10.63;;;9.88;;
63217;SDS011;49314;48.278;16.378;2023-07-24T01:35:54;10.80;;;10.10;;
63217;SDS011;49314;48.278;16.378;2023-07-24T01:40:45;12.47;;;11.57;;
63217;SDS011;49314;48.278;16.378;2023-07-24T01:43:10;9.10;;;8.50;;
63217;SDS011;49314;48.278;16.378;2023-07-24T01:45:35;11.30;;;10.48;;
63217;SDS011;49314;48.278;16.378;2023-07-24T01:48:01;9.07;;;8.48;;
63217;SDS011;49314;48.278;16.378;2023-07-24T01:50:27;10.52;;;9.73;;
63217;SDS011;49314;48.278;16.378;2023-07-24T01:52:52;12.40;;;11.48;;
63217;SDS011;49314;48.278;16.378;2023-07-24T01:55:17;11.17;;;10.33;;
63217;SDS011;49314;48.278;16.378;2023-07-24T01:57:42;9.90;;;9.07;;
63217;SDS011;49314;48.278;16.378;2023-07-24T02:00:08;11.70;;;10.73;;
63217;SDS011;49314;48.278;16.378;2023-07-24T02:02:33;11.68;;;10.77;;
63217;SDS011;49314;48.278;16.378;2023-07-24T02:04:58;11.00;;;10.20;;
63217;SDS011;49314;48.278;16.378;2023-07-24T02:07:24;10.73;;;9.73;;
63217;SDS011;49314;48.278;16.378;2023-07-24T02:09:49;12.27;;;11.32;;
63217;SDS011;49314;48.278;16.378;2023-07-24T02:12:14;11.07;;;10.27;;
63217;SDS011;49314;48.278;16.378;2023-07-24T02:14:40;10.13;;;9.43;;
63217;SDS011;49314;48.278;16.378;2023-07-24T02:17:05;11.73;;;11.03;;
63217;SDS011;49314;48.278;16.378;2023-07-24T02:19:30;10.77;;;9.97;;
63217;SDS011;49314;48.278;16.378;2023-07-24T02:21:55;12.30;;;11.30;;
63217;SDS011;49314;48.278;16.378;2023-07-24T02:24:21;12.07;;;11.23;;
63217;SDS011;49314;48.278;16.378;2023-07-24T02:26:46;11.00;;;10.07;;
63217;SDS011;49314;48.278;16.378;2023-07-24T02:29:11;9.03;;;8.27;;
63217;SDS011;49314;48.278;16.378;2023-07-24T02:31:36;10.23;;;9.33;;
63217;SDS011;49314;48.278;16.378;2023-07-24T02:34:01;11.50;;;10.75;;
63217;SDS011;49314;48.278;16.378;2023-07-24T02:36:27;9.93;;;9.23;;
63217;SDS011;49314;48.278;16.378;2023-07-24T02:38:52;10.83;;;9.93;;
63217;SDS011;49314;48.278;16.378;2023-07-24T02:41:17;9.27;;;8.65;;
63217;SDS011;49314;48.278;16.378;2023-07-24T02:43:42;11.32;;;10.52;;
63217;SDS011;49314;48.278;16.378;2023-07-24T02:46:08;10.57;;;9.88;;
63217;SDS011;49314;48.278;16.378;2023-07-24T02:48:34;11.20;;;10.40;;
63217;SDS011;49314;48.278;16.378;2023-07-24T02:50:59;11.02;;;10.07;;
63217;SDS011;49314;48.278;16.378;2023-07-24T02:53:25;9.80;;;9.03;;
63217;SDS011;49314;48.278;16.378;2023-07-24T02:55:50;10.63;;;9.93;;
63217;SDS011;49314;48.278;16.378;2023-07-24T02:58:15;13.63;;;12.63;;
63217;SDS011;49314;48.278;16.378;2023-07-24T03:00:40;10.75;;;9.95;;
63217;SDS011;49314;48.278;16.378;2023-07-24T03:03:06;11.50;;;10.60;;
63217;SDS011;49314;48.278;16.378;2023-07-24T03:05:31;11.37;;;10.20;;
63217;SDS011;49314;48.278;16.378;2023-07-24T03:07:58;11.25;;;10.13;;
63217;SDS011;49314;48.278;16.378;2023-07-24T03:10:23;11.57;;;10.80;;
63217;SDS011;49314;48.278;16.378;2023-07-24T03:12:49;12.50;;;11.63;;
63217;SDS011;49314;48.278;16.378;2023-07-24T03:15:14;13.20;;;12.30;;
63217;SDS011;49314;48.278;16.378;2023-07-24T03:17:39;11.97;;;10.97;;
63217;SDS011;49314;48.278;16.378;2023-07-24T03:20:08;13.00;;;12.07;;
63217;SDS011;49314;48.278;16.378;2023-07-24T03:22:33;10.15;;;9.35;;
63217;SDS011;49314;48.278;16.378;2023-07-24T03:24:58;12.90;;;12.00;;
63217;SDS011;49314;48.278;16.378;2023-07-24T03:27:23;13.30;;;12.43;;
63217;SDS011;49314;48.278;16.378;2023-07-24T03:29:49;12.20;;;11.20;;
63217;SDS011;49314;48.278;16.378;2023-07-24T03:32:14;11.30;;;10.30;;
63217;SDS011;49314;48.278;16.378;2023-07-24T03:34:39;12.10;;;11.20;;
63217;SDS011;49314;48.278;16.378;2023-07-24T03:37:04;11.45;;;10.73;;
63217;SDS011;49314;48.278;16.378;2023-07-24T03:39:30;11.53;;;10.60;;
63217;SDS011;49314;48.278;16.378;2023-07-24T03:41:55;12.80;;;11.80;;
63217;SDS011;49314;48.278;16.378;2023-07-24T03:44:20;11.13;;;10.37;;
63217;SDS011;49314;48.278;16.378;2023-07-24T03:46:45;10.53;;;9.70;;
63217;SDS011;49314;48.278;16.378;2023-07-24T03:49:10;10.70;;;10.03;;
63217;SDS011;49314;48.278;16.378;2023-07-24T03:51:36;10.65;;;9.75;;
63217;SDS011;49314;48.278;16.378;2023-07-24T03:54:01;10.27;;;9.40;;
63217;SDS011;49314;48.278;16.378;2023-07-24T03:56:26;10.90;;;10.03;;
63217;SDS011;49314;48.278;16.378;2023-07-24T03:58:52;11.87;;;10.90;;
63217;SDS011;49314;48.278;16.378;2023-07-24T04:01:17;11.23;;;10.43;;
63217;SDS011;49314;48.278;16.378;2023-07-24T04:03:42;12.37;;;11.13;;
63217;SDS011;49314;48.278;16.378;2023-07-24T04:06:07;12.32;;;11.38;;
63217;SDS011;49314;48.278;16.378;2023-07-24T04:08:33;14.38;;;13.35;;
63217;SDS011;49314;48.278;16.378;2023-07-24T04:10:58;11.17;;;10.30;;
63217;SDS011;49314;48.278;16.378;2023-07-24T04:13:23;12.30;;;11.30;;
63217;SDS011;49314;48.278;16.378;2023-07-24T04:15:48;15.13;;;13.70;;
63217;SDS011;49314;48.278;16.378;2023-07-24T04:18:14;13.85;;;12.85;;
63217;SDS011;49314;48.278;16.378;2023-07-24T04:20:39;13.27;;;12.17;;
63217;SDS011;49314;48.278;16.378;2023-07-24T04:23:04;12.00;;;11.10;;
63217;SDS011;49314;48.278;16.378;2023-07-24T04:25:29;13.47;;;12.63;;
63217;SDS011;49314;48.278;16.378;2023-07-24T04:27:55;13.63;;;12.70;;
63217;SDS011;49314;48.278;16.378;2023-07-24T04:30:20;14.07;;;12.73;;
63217;SDS011;49314;48.278;16.378;2023-07-24T04:32:45;13.23;;;11.65;;
63217;SDS011;49314;48.278;16.378;2023-07-24T04:35:11;14.82;;;13.73;;
63217;SDS011;49314;48.278;16.378;2023-07-24T04:37:36;14.65;;;13.65;;
63217;SDS011;49314;48.278;16.378;2023-07-24T04:40:01;11.30;;;10.30;;
63217;SDS011;49314;48.278;16.378;2023-07-24T04:42:27;13.98;;;12.82;;
63217;SDS011;49314;48.278;16.378;2023-07-24T04:44:52;14.80;;;13.55;;
63217;SDS011;49314;48.278;16.378;2023-07-24T04:47:17;14.87;;;13.63;;
63217;SDS011;49314;48.278;16.378;2023-07-24T04:49:43;14.47;;;13.20;;
63217;SDS011;49314;48.278;16.378;2023-07-24T04:52:08;14.37;;;13.17;;
63217;SDS011;49314;48.278;16.378;2023-07-24T04:54:33;13.93;;;12.73;;
63217;SDS011;49314;48.278;16.378;2023-07-24T04:56:58;12.95;;;11.95;;
63217;SDS011;49314;48.278;16.378;2023-07-24T04:59:24;12.90;;;11.67;;
63217;SDS011;49314;48.278;16.378;2023-07-24T05:01:49;14.03;;;12.93;;
63217;SDS011;49314;48.278;16.378;2023-07-24T05:04:14;13.93;;;12.60;;
63217;SDS011;49314;48.278;16.378;2023-07-24T05:06:39;13.43;;;12.23;;
63217;SDS011;49314;48.278;16.378;2023-07-24T05:09:05;12.13;;;11.13;;
63217;SDS011;49314;48.278;16.378;2023-07-24T05:11:30;14.50;;;12.77;;
63217;SDS011;49314;48.278;16.378;2023-07-24T05:13:55;12.33;;;11.30;;
63217;SDS011;49314;48.278;16.378;2023-07-24T05:16:20;14.40;;;13.15;;
63217;SDS011;49314;48.278;16.378;2023-07-24T05:18:46;13.55;;;12.38;;
63217;SDS011;49314;48.278;16.378;2023-07-24T05:21:11;12.77;;;11.03;;
63217;SDS011;49314;48.278;16.378;2023-07-24T05:23:36;12.40;;;10.30;;
63217;SDS011;49314;48.278;16.378;2023-07-24T05:26:02;12.50;;;11.50;;
63217;SDS011;49314;48.278;16.378;2023-07-24T05:28:28;12.50;;;11.23;;
63217;SDS011;49314;48.278;16.378;2023-07-24T05:30:53;13.25;;;11.85;;
63217;SDS011;49314;48.278;16.378;2023-07-24T05:33:19;14.30;;;11.80;;
63217;SDS011;49314;48.278;16.378;2023-07-24T05:35:44;12.85;;;10.60;;
63217;SDS011;49314;48.278;16.378;2023-07-24T05:38:09;12.53;;;11.23;;
63217;SDS011;49314;48.278;16.378;2023-07-24T05:40:34;12.47;;;11.00;;
63217;SDS011;49314;48.278;16.378;2023-07-24T05:43:00;12.43;;;11.40;;
63217;SDS011;49314;48.278;16.378;2023-07-24T05:45:26;12.77;;;11.60;;
63217;SDS011;49314;48.278;16.378;2023-07-24T05:47:51;12.25;;;11.05;;
63217;SDS011;49314;48.278;16.378;2023-07-24T05:50:16;13.05;;;11.68;;
63217;SDS011;49314;48.278;16.378;2023-07-24T05:52:41;13.87;;;11.93;;
63217;SDS011;49314;48.278;16.378;2023-07-24T05:55:07;14.63;;;12.00;;
63217;SDS011;49314;48.278;16.378;2023-07-24T05:57:32;11.90;;;10.48;;
63217;SDS011;49314;48.278;16.378;2023-07-24T05:59:58;13.93;;;10.57;;
63217;SDS011;49314;48.278;16.378;2023-07-24T06:02:23;12.97;;;11.60;;
63217;SDS011;49314;48.278;16.378;2023-07-24T06:04:48;12.37;;;11.20;;
63217;SDS011;49314;48.278;16.378;2023-07-24T06:07:13;11.60;;;10.50;;
63217;SDS011;49314;48.278;16.378;2023-07-24T06:09:38;14.57;;;11.77;;
63217;SDS011;49314;48.278;16.378;2023-07-24T06:12:04;12.40;;;9.93;;
63217;SDS011;49314;48.278;16.378;2023-07-24T06:14:29;12.48;;;10.30;;
63217;SDS011;49314;48.278;16.378;2023-07-24T06:16:54;10.17;;;9.13;;
63217;SDS011;49314;48.278;16.378;2023-07-24T06:19:20;13.30;;;9.97;;
63217;SDS011;49314;48.278;16.378;2023-07-24T06:21:46;12.20;;;9.85;;
63217;SDS011;49314;48.278;16.378;2023-07-24T06:24:11;10.47;;;9.33;;
63217;SDS011;49314;48.278;16.378;2023-07-24T06:26:38;11.82;;;9.32;;
63217;SDS011;49314;48.278;16.378;2023-07-24T06:29:03;10.63;;;9.40;;
63217;SDS011;49314;48.278;16.378;2023-07-24T06:31:28;10.73;;;9.67;;
63217;SDS011;49314;48.278;16.378;2023-07-24T06:33:54;9.70;;;8.70;;
63217;SDS011;49314;48.278;16.378;2023-07-24T06:36:19;13.13;;;9.70;;
63217;SDS011;49314;48.278;16.378;2023-07-24T06:38:44;12.88;;;8.82;;
63217;SDS011;49314;48.278;16.378;2023-07-24T06:41:11;10.25;;;9.25;;
63217;SDS011;49314;48.278;16.378;2023-07-24T06:43:37;11.07;;;8.68;;
63217;SDS011;49314;48.278;16.378;2023-07-24T06:46:02;10.23;;;8.70;;
63217;SDS011;49314;48.278;16.378;2023-07-24T06:48:27;10.07;;;8.23;;
63217;SDS011;49314;48.278;16.378;2023-07-24T06:50:53;12.33;;;9.23;;
63217;SDS011;49314;48.278;16.378;2023-07-24T06:53:18;9.63;;;8.70;;
63217;SDS011;49314;48.278;16.378;2023-07-24T06:55:43;9.50;;;8.60;;
63217;SDS011;49314;48.278;16.378;2023-07-24T06:58:08;11.23;;;9.37;;
63217;SDS011;49314;48.278;16.378;2023-07-24T07:00:33;10.57;;;8.47;;
63217;SDS011;49314;48.278;16.378;2023-07-24T07:02:59;11.43;;;8.67;;
63217;SDS011;49314;48.278;16.378;2023-07-24T07:05:24;8.73;;;7.93;;
63217;SDS011;49314;48.278;16.378;2023-07-24T07:07:49;9.23;;;8.33;;
63217;SDS011;49314;48.278;16.378;2023-07-24T07:10:14;9.67;;;8.20;;
63217;SDS011;49314;48.278;16.378;2023-07-24T07:12:40;8.67;;;7.77;;
63217;SDS011;49314;48.278;16.378;2023-07-24T07:15:05;12.53;;;7.83;;
63217;SDS011;49314;48.278;16.378;2023-07-24T07:17:30;12.90;;;7.68;;
63217;SDS011;49314;48.278;16.378;2023-07-24T07:19:56;8.93;;;6.77;;
63217;SDS011;49314;48.278;16.378;2023-07-24T07:22:22;16.77;;;8.20;;
63217;SDS011;49314;48.278;16.378;2023-07-24T07:24:47;8.10;;;7.37;;
63217;SDS011;49314;48.278;16.378;2023-07-24T07:27:13;10.47;;;6.77;;
63217;SDS011;49314;48.278;16.378;2023-07-24T07:29:42;10.20;;;8.23;;
63217;SDS011;49314;48.278;16.378;2023-07-24T07:32:07;12.50;;;7.63;;
63217;SDS011;49314;48.278;16.378;2023-07-24T07:34:33;8.82;;;7.07;;
63217;SDS011;49314;48.278;16.378;2023-07-24T07:36:59;8.93;;;7.68;;
63217;SDS011;49314;48.278;16.378;2023-07-24T07:39:25;7.97;;;7.17;;
63217;SDS011;49314;48.278;16.378;2023-07-24T07:41:50;9.23;;;7.80;;
63217;SDS011;49314;48.278;16.378;2023-07-24T07:44:15;10.10;;;7.97;;
63217;SDS011;49314;48.278;16.378;2023-07-24T07:46:40;11.47;;;8.47;;
63217;SDS011;49314;48.278;16.378;2023-07-24T07:49:05;8.97;;;7.93;;
63217;SDS011;49314;48.278;16.378;2023-07-24T07:51:31;9.27;;;8.03;;
63217;SDS011;49314;48.278;16.378;2023-07-24T07:53:56;11.23;;;7.87;;
63217;SDS011;49314;48.278;16.378;2023-07-24T07:56:21;9.67;;;8.03;;
63217;SDS011;49314;48.278;16.378;2023-07-24T07:58:46;8.30;;;7.23;;
63217;SDS011;49314;48.278;16.378;2023-07-24T08:01:12;10.23;;;7.40;;
63217;SDS011;49314;48.278;16.378;2023-07-24T08:03:37;8.67;;;7.87;;
63217;SDS011;49314;48.278;16.378;2023-07-24T08:06:02;8.83;;;7.80;;
63217;SDS011;49314;48.278;16.378;2023-07-24T08:08:27;9.77;;;8.50;;
63217;SDS011;49314;48.278;16.378;2023-07-24T08:10:53;8.53;;;7.73;;
63217;SDS011;49314;48.278;16.378;2023-07-24T08:13:18;8.93;;;7.93;;
63217;SDS011;49314;48.278;16.378;2023-07-24T08:15:43;8.97;;;8.07;;
63217;SDS011;49314;48.278;16.378;2023-07-24T08:18:08;9.63;;;7.47;;
63217;SDS011;49314;48.278;16.378;2023-07-24T08:20:37;8.93;;;7.83;;
63217;SDS011;49314;48.278;16.378;2023-07-24T08:23:02;9.65;;;8.02;;
63217;SDS011;49314;48.278;16.378;2023-07-24T08:25:27;10.33;;;7.90;;
63217;SDS011;49314;48.278;16.378;2023-07-24T08:27:53;9.00;;;8.20;;
63217;SDS011;49314;48.278;16.378;2023-07-24T08:30:18;8.47;;;7.40;;
63217;SDS011;49314;48.278;16.378;2023-07-24T08:32:43;9.38;;;7.80;;
63217;SDS011;49314;48.278;16.378;2023-07-24T08:35:09;9.00;;;8.20;;
63217;SDS011;49314;48.278;16.378;2023-07-24T08:37:34;12.88;;;8.80;;
63217;SDS011;49314;48.278;16.378;2023-07-24T08:39:59;9.37;;;7.77;;
63217;SDS011;49314;48.278;16.378;2023-07-24T08:42:25;10.33;;;7.53;;
63217;SDS011;49314;48.278;16.378;2023-07-24T08:44:50;8.57;;;7.87;;
63217;SDS011;49314;48.278;16.378;2023-07-24T08:47:16;9.70;;;8.23;;
63217;SDS011;49314;48.278;16.378;2023-07-24T08:49:42;9.40;;;7.15;;
63217;SDS011;49314;48.278;16.378;2023-07-24T08:52:08;9.18;;;7.13;;
63217;SDS011;49314;48.278;16.378;2023-07-24T08:54:35;8.20;;;7.50;;
63217;SDS011;49314;48.278;16.378;2023-07-24T08:57:01;9.85;;;7.18;;
63217;SDS011;49314;48.278;16.378;2023-07-24T08:59:27;9.27;;;7.88;;
63217;SDS011;49314;48.278;16.378;2023-07-24T09:01:52;9.27;;;7.73;;
63217;SDS011;49314;48.278;16.378;2023-07-24T09:04:17;8.67;;;7.57;;
63217;SDS011;49314;48.278;16.378;2023-07-24T09:06:43;10.00;;;7.40;;
63217;SDS011;49314;48.278;16.378;2023-07-24T09:09:12;8.88;;;7.53;;
63217;SDS011;49314;48.278;16.378;2023-07-24T09:11:45;13.00;;;7.68;;
63217;SDS011;49314;48.278;16.378;2023-07-24T09:14:19;7.55;;;6.90;;
63217;SDS011;49314;48.278;16.378;2023-07-24T09:16:44;8.63;;;6.72;;
63217;SDS011;49314;48.278;16.378;2023-07-24T09:19:16;8.80;;;7.43;;
63217;SDS011;49314;48.278;16.378;2023-07-24T09:21:41;8.02;;;7.22;;
63217;SDS011;49314;48.278;16.378;2023-07-24T09:24:11;10.60;;;7.28;;
63217;SDS011;49314;48.278;16.378;2023-07-24T09:26:46;8.63;;;7.82;;
63217;SDS011;49314;48.278;16.378;2023-07-24T09:29:11;10.40;;;7.35;;
63217;SDS011;49314;48.278;16.378;2023-07-24T09:31:36;8.60;;;6.93;;
63217;SDS011;49314;48.278;16.378;2023-07-24T09:34:01;9.73;;;7.90;;
63217;SDS011;49314;48.278;16.378;2023-07-24T09:36:36;8.25;;;7.45;;
63217;SDS011;49314;48.278;16.378;2023-07-24T09:39:01;7.20;;;6.38;;
63217;SDS011;49314;48.278;16.378;2023-07-24T09:41:31;7.93;;;7.20;;
63217;SDS011;49314;48.278;16.378;2023-07-24T09:43:59;9.73;;;8.03;;
63217;SDS011;49314;48.278;16.378;2023-07-24T09:46:24;7.20;;;6.60;;
63217;SDS011;49314;48.278;16.378;2023-07-24T09:48:49;7.40;;;6.70;;
63217;SDS011;49314;48.278;16.378;2023-07-24T09:51:14;7.80;;;7.03;;
63217;SDS011;49314;48.278;16.378;2023-07-24T09:53:43;9.40;;;7.17;;
63217;SDS011;49314;48.278;16.378;2023-07-24T09:56:10;7.83;;;7.10;;
63217;SDS011;49314;48.278;16.378;2023-07-24T09:58:39;8.80;;;7.88;;
63217;SDS011;49314;48.278;16.378;2023-07-24T10:01:06;8.18;;;7.38;;
63217;SDS011;49314;48.278;16.378;2023-07-24T10:03:35;8.20;;;7.40;;
63217;SDS011;49314;48.278;16.378;2023-07-24T10:06:01;9.30;;;7.60;;
63217;SDS011;49314;48.278;16.378;2023-07-24T10:08:26;7.45;;;6.85;;
63217;SDS011;49314;48.278;16.378;2023-07-24T10:10:52;8.77;;;7.95;;
63217;SDS011;49314;48.278;16.378;2023-07-24T10:13:18;7.50;;;6.80;;
63217;SDS011;49314;48.278;16.378;2023-07-24T10:15:44;7.93;;;7.22;;
63217;SDS011;49314;48.278;16.378;2023-07-24T10:18:10;8.20;;;7.50;;
63217;SDS011;49314;48.278;16.378;2023-07-24T10:20:36;10.48;;;7.50;;
63217;SDS011;49314;48.278;16.378;2023-07-24T10:23:02;8.02;;;7.22;;
63217;SDS011;49314;48.278;16.378;2023-07-24T10:25:34;7.85;;;7.05;;
63217;SDS011;49314;48.278;16.378;2023-07-24T10:28:07;7.70;;;7.05;;
63217;SDS011;49314;48.278;16.378;2023-07-24T10:30:34;7.47;;;6.80;;
63217;SDS011;49314;48.278;16.378;2023-07-24T10:33:03;8.65;;;7.68;;
63217;SDS011;49314;48.278;16.378;2023-07-24T10:35:36;8.48;;;7.53;;
63217;SDS011;49314;48.278;16.378;2023-07-24T10:38:01;7.88;;;7.18;;
63217;SDS011;49314;48.278;16.378;2023-07-24T10:40:27;9.68;;;6.68;;
63217;SDS011;49314;48.278;16.378;2023-07-24T10:43:05;8.10;;;7.23;;
63217;SDS011;49314;48.278;16.378;2023-07-24T10:45:38;9.18;;;7.57;;
63217;SDS011;49314;48.278;16.378;2023-07-24T10:48:03;7.75;;;7.05;;
63217;SDS011;49314;48.278;16.378;2023-07-24T10:50:35;7.30;;;6.50;;
63217;SDS011;49314;48.278;16.378;2023-07-24T10:53:01;7.93;;;6.90;;
63217;SDS011;49314;48.278;16.378;2023-07-24T10:55:26;7.93;;;7.30;;
63217;SDS011;49314;48.278;16.378;2023-07-24T10:57:52;7.90;;;7.07;;
63217;SDS011;49314;48.278;16.378;2023-07-24T11:00:18;7.85;;;7.13;;
63217;SDS011;49314;48.278;16.378;2023-07-24T11:02:43;8.63;;;7.83;;
63217;SDS011;49314;48.278;16.378;2023-07-24T11:05:08;8.07;;;7.33;;
63217;SDS011;49314;48.278;16.378;2023-07-24T11:07:33;13.00;;;7.37;;
63217;SDS011;49314;48.278;16.378;2023-07-24T11:09:59;9.13;;;7.50;;
63217;SDS011;49314;48.278;16.378;2023-07-24T11:12:24;11.27;;;7.93;;
63217;SDS011;49314;48.278;16.378;2023-07-24T11:14:52;8.65;;;7.82;;
63217;SDS011;49314;48.278;16.378;2023-07-24T11:17:20;8.27;;;7.47;;
63217;SDS011;49314;48.278;16.378;2023-07-24T11:19:46;8.55;;;7.57;;
63217;SDS011;49314;48.278;16.378;2023-07-24T11:22:11;8.75;;;7.90;;
63217;SDS011;49314;48.278;16.378;2023-07-24T11:24:46;8.25;;;7.13;;
63217;SDS011;49314;48.278;16.378;2023-07-24T11:27:15;8.10;;;7.22;;
63217;SDS011;49314;48.278;16.378;2023-07-24T11:29:41;9.63;;;8.73;;
63217;SDS011;49314;48.278;16.378;2023-07-24T11:32:07;8.73;;;7.93;;
63217;SDS011;49314;48.278;16.378;2023-07-24T11:34:32;9.80;;;7.70;;
63217;SDS011;49314;48.278;16.378;2023-07-24T11:36:58;9.43;;;8.52;;
63217;SDS011;49314;48.278;16.378;2023-07-24T11:39:24;8.95;;;8.25;;
63217;SDS011;49314;48.278;16.378;2023-07-24T11:41:49;8.77;;;7.60;;
63217;SDS011;49314;48.278;16.378;2023-07-24T11:44:14;9.03;;;7.50;;
63217;SDS011;49314;48.278;16.378;2023-07-24T11:46:42;9.32;;;8.43;;
63217;SDS011;49314;48.278;16.378;2023-07-24T11:49:08;8.27;;;7.47;;
63217;SDS011;49314;48.278;16.378;2023-07-24T11:51:33;8.93;;;8.20;;
63217;SDS011;49314;48.278;16.378;2023-07-24T11:54:08;9.05;;;8.25;;
63217;SDS011;49314;48.278;16.378;2023-07-24T11:56:33;12.20;;;8.40;;
63217;SDS011;49314;48.278;16.378;2023-07-24T11:59:08;9.93;;;8.60;;
63217;SDS011;49314;48.278;16.378;2023-07-24T12:01:34;11.38;;;8.65;;
63217;SDS011;49314;48.278;16.378;2023-07-24T12:03:59;9.25;;;7.43;;
63217;SDS011;49314;48.278;16.378;2023-07-24T12:06:24;8.60;;;7.80;;
63217;SDS011;49314;48.278;16.378;2023-07-24T12:08:51;9.43;;;8.40;;
63217;SDS011;49314;48.278;16.378;2023-07-24T12:11:16;8.97;;;8.07;;
63217;SDS011;49314;48.278;16.378;2023-07-24T12:13:45;8.65;;;7.72;;
63217;SDS011;49314;48.278;16.378;2023-07-24T12:16:10;12.23;;;8.43;;
63217;SDS011;49314;48.278;16.378;2023-07-24T12:18:35;10.57;;;8.50;;
63217;SDS011;49314;48.278;16.378;2023-07-24T12:21:01;8.83;;;8.03;;
63217;SDS011;49314;48.278;16.378;2023-07-24T12:23:26;9.73;;;7.93;;
63217;SDS011;49314;48.278;16.378;2023-07-24T12:25:51;10.87;;;9.17;;
63217;SDS011;49314;48.278;16.378;2023-07-24T12:28:17;10.43;;;8.95;;
63217;SDS011;49314;48.278;16.378;2023-07-24T12:30:42;9.83;;;8.77;;
63217;SDS011;49314;48.278;16.378;2023-07-24T12:33:07;10.57;;;9.48;;
63217;SDS011;49314;48.278;16.378;2023-07-24T12:35:32;11.33;;;8.47;;
63217;SDS011;49314;48.278;16.378;2023-07-24T12:37:58;9.33;;;8.33;;
63217;SDS011;49314;48.278;16.378;2023-07-24T12:40:24;8.90;;;8.10;;
63217;SDS011;49314;48.278;16.378;2023-07-24T12:42:49;9.53;;;8.50;;
63217;SDS011;49314;48.278;16.378;2023-07-24T12:45:14;9.43;;;8.07;;
63217;SDS011;49314;48.278;16.378;2023-07-24T12:47:39;10.33;;;8.80;;
63217;SDS011;49314;48.278;16.378;2023-07-24T12:50:05;9.83;;;8.67;;
63217;SDS011;49314;48.278;16.378;2023-07-24T12:52:30;10.95;;;8.40;;
63217;SDS011;49314;48.278;16.378;2023-07-24T12:54:56;10.50;;;8.48;;
63217;SDS011;49314;48.278;16.378;2023-07-24T12:57:21;10.20;;;9.20;;
63217;SDS011;49314;48.278;16.378;2023-07-24T12:59:46;9.47;;;8.50;;
63217;SDS011;49314;48.278;16.378;2023-07-24T13:02:11;8.70;;;7.83;;
63217;SDS011;49314;48.278;16.378;2023-07-24T13:04:37;10.63;;;8.17;;
63217;SDS011;49314;48.278;16.378;2023-07-24T13:07:02;9.80;;;8.83;;
63217;SDS011;49314;48.278;16.378;2023-07-24T13:09:29;9.00;;;8.10;;
63217;SDS011;49314;48.278;16.378;2023-07-24T13:11:54;12.13;;;8.37;;
63217;SDS011;49314;48.278;16.378;2023-07-24T13:14:20;9.77;;;8.87;;
63217;SDS011;49314;48.278;16.378;2023-07-24T13:16:45;8.73;;;8.02;;
63217;SDS011;49314;48.278;16.378;2023-07-24T13:19:10;10.43;;;9.43;;
63217;SDS011;49314;48.278;16.378;2023-07-24T13:21:36;10.60;;;9.20;;
63217;SDS011;49314;48.278;16.378;2023-07-24T13:24:01;9.83;;;8.83;;
63217;SDS011;49314;48.278;16.378;2023-07-24T13:26:26;10.43;;;9.30;;
63217;SDS011;49314;48.278;16.378;2023-07-24T13:28:51;12.47;;;9.47;;
63217;SDS011;49314;48.278;16.378;2023-07-24T13:31:17;12.13;;;9.38;;
63217;SDS011;49314;48.278;16.378;2023-07-24T13:33:43;11.43;;;10.05;;
63217;SDS011;49314;48.278;16.378;2023-07-24T13:36:08;9.67;;;8.73;;
63217;SDS011;49314;48.278;16.378;2023-07-24T13:38:34;9.95;;;8.95;;
63217;SDS011;49314;48.278;16.378;2023-07-24T13:40:59;11.93;;;10.80;;
63217;SDS011;49314;48.278;16.378;2023-07-24T13:43:24;11.57;;;10.47;;
63217;SDS011;49314;48.278;16.378;2023-07-24T13:45:49;11.48;;;10.48;;
63217;SDS011;49314;48.278;16.378;2023-07-24T13:48:15;11.53;;;10.33;;
63217;SDS011;49314;48.278;16.378;2023-07-24T13:50:40;10.90;;;9.80;;
63217;SDS011;49314;48.278;16.378;2023-07-24T13:53:05;11.47;;;10.27;;
63217;SDS011;49314;48.278;16.378;2023-07-24T13:55:31;10.57;;;9.37;;
63217;SDS011;49314;48.278;16.378;2023-07-24T13:57:56;11.17;;;9.90;;
63217;SDS011;49314;48.278;16.378;2023-07-24T14:00:21;11.67;;;10.57;;
63217;SDS011;49314;48.278;16.378;2023-07-24T14:02:46;13.37;;;9.87;;
63217;SDS011;49314;48.278;16.378;2023-07-24T14:05:12;11.97;;;10.70;;
63217;SDS011;49314;48.278;16.378;2023-07-24T14:07:37;11.80;;;10.60;;
63217;SDS011;49314;48.278;16.378;2023-07-24T14:10:02;13.60;;;10.30;;
63217;SDS011;49314;48.278;16.378;2023-07-24T14:12:27;12.05;;;10.88;;
63217;SDS011;49314;48.278;16.378;2023-07-24T14:14:53;12.77;;;10.83;;
63217;SDS011;49314;48.278;16.378;2023-07-24T14:17:18;12.90;;;11.67;;
63217;SDS011;49314;48.278;16.378;2023-07-24T14:19:44;12.73;;;11.40;;